SKW5805 KSNA-KSFO
Flight info
| Callsign | SKW5805 |
|---|---|
| Flight time | 0h 56m |
| Altitude | 34000 |
| Route | HHERO3 IKAYE RIZIN SPLNT STOKD SERFR SERFR4 |
| Aircraft | E75L/M-SDE3GILORVW/S |
Departure
| Time | 2026-05-06 01:45 |
|---|---|
| Airport | John Wayne Orange County International Airport (KSNA) |
Arrival
| Time | 2026-05-06 02:42 |
|---|---|
| Airport | San Francisco International Airport (KSFO) |
| Time | Latitude | Longitude | Altitude | Speed | Heading |
|---|---|---|---|---|---|
| 2026-05-06 01:30 | 33.67935 | -117.86237 | 42 ft | 0 kts | 118° |
| 2026-05-06 01:37 | 33.67940 | -117.86249 | 43 ft | 1 kts | 117° |
| 2026-05-06 01:38 | 33.67944 | -117.86262 | 43 ft | 2 kts | 95° |
| 2026-05-06 01:38 | 33.67942 | -117.86281 | 43 ft | 2 kts | 62° |
| 2026-05-06 01:38 | 33.67931 | -117.86295 | 43 ft | 2 kts | 30° |
| 2026-05-06 01:38 | 33.67920 | -117.86300 | 43 ft | 0 kts | 11° |
| 2026-05-06 01:40 | 33.67926 | -117.86298 | 43 ft | 2 kts | 11° |
| 2026-05-06 01:40 | 33.67956 | -117.86301 | 43 ft | 5 kts | 357° |
| 2026-05-06 01:41 | 33.67968 | -117.86297 | 43 ft | 0 kts | 26° |
| 2026-05-06 01:42 | 33.67975 | -117.86293 | 43 ft | 3 kts | 25° |
| 2026-05-06 01:43 | 33.68021 | -117.86269 | 42 ft | 9 kts | 8° |
| 2026-05-06 01:43 | 33.68068 | -117.86314 | 42 ft | 8 kts | 299° |
| 2026-05-06 01:43 | 33.68098 | -117.86383 | 43 ft | 9 kts | 296° |
| 2026-05-06 01:43 | 33.68129 | -117.86461 | 43 ft | 10 kts | 295° |
| 2026-05-06 01:44 | 33.68139 | -117.86498 | 43 ft | 2 kts | 268° |
| 2026-05-06 01:44 | 33.68126 | -117.86527 | 43 ft | 5 kts | 224° |
| 2026-05-06 01:44 | 33.68069 | -117.86569 | 43 ft | 11 kts | 207° |
| 2026-05-06 01:44 | 33.67886 | -117.86690 | 46 ft | 61 kts | 207° |
| 2026-05-06 01:45 | 33.67199 | -117.87125 | 70 ft | 129 kts | 205° |
| 2026-05-06 01:45 | 33.66312 | -117.87665 | 659 ft | 129 kts | 210° |
| 2026-05-06 01:45 | 33.65307 | -117.88033 | 1097 ft | 145 kts | 193° |
| 2026-05-06 01:45 | 33.64166 | -117.88300 | 1455 ft | 160 kts | 193° |
| 2026-05-06 01:46 | 33.62923 | -117.88590 | 1795 ft | 176 kts | 194° |
| 2026-05-06 01:46 | 33.61585 | -117.88902 | 2244 ft | 184 kts | 194° |
| 2026-05-06 01:46 | 33.60260 | -117.89210 | 2749 ft | 187 kts | 193° |
| 2026-05-06 01:46 | 33.58907 | -117.89525 | 3070 ft | 200 kts | 193° |
| 2026-05-06 01:47 | 33.57425 | -117.89902 | 3102 ft | 200 kts | 205° |
| 2026-05-06 01:47 | 33.56111 | -117.91112 | 3461 ft | 231 kts | 225° |
| 2026-05-06 01:47 | 33.54767 | -117.92626 | 3883 ft | 258 kts | 225° |
| 2026-05-06 01:47 | 33.53325 | -117.94253 | 4464 ft | 268 kts | 225° |
| 2026-05-06 01:48 | 33.51809 | -117.95962 | 5024 ft | 271 kts | 225° |
| 2026-05-06 01:48 | 33.50262 | -117.97707 | 5596 ft | 275 kts | 225° |
| 2026-05-06 01:48 | 33.48680 | -117.99491 | 6170 ft | 279 kts | 225° |
| 2026-05-06 01:48 | 33.47355 | -118.01629 | 6774 ft | 285 kts | 242° |
| 2026-05-06 01:49 | 33.46218 | -118.03944 | 7577 ft | 290 kts | 242° |
| 2026-05-06 01:49 | 33.45148 | -118.06123 | 8442 ft | 290 kts | 242° |
| 2026-05-06 01:49 | 33.44063 | -118.08334 | 9230 ft | 291 kts | 242° |
| 2026-05-06 01:49 | 33.42965 | -118.10568 | 9954 ft | 295 kts | 242° |
| 2026-05-06 01:50 | 33.41864 | -118.12811 | 10616 ft | 300 kts | 243° |
| 2026-05-06 01:50 | 33.41248 | -118.15353 | 11176 ft | 301 kts | 274° |
| 2026-05-06 01:50 | 33.41674 | -118.18230 | 11730 ft | 309 kts | 285° |
| 2026-05-06 01:50 | 33.42242 | -118.21178 | 12286 ft | 319 kts | 285° |
| 2026-05-06 01:51 | 33.42832 | -118.24232 | 12904 ft | 325 kts | 285° |
| 2026-05-06 01:51 | 33.43417 | -118.27255 | 13627 ft | 328 kts | 285° |
| 2026-05-06 01:51 | 33.44128 | -118.30328 | 14316 ft | 329 kts | 296° |
| 2026-05-06 01:51 | 33.45331 | -118.33157 | 15064 ft | 330 kts | 300° |
| 2026-05-06 01:52 | 33.46567 | -118.35989 | 15795 ft | 330 kts | 300° |
| 2026-05-06 01:52 | 33.47819 | -118.38856 | 16000 ft | 349 kts | 300° |
| 2026-05-06 01:52 | 33.49171 | -118.41959 | 16014 ft | 361 kts | 300° |
| 2026-05-06 01:52 | 33.50514 | -118.45042 | 16016 ft | 360 kts | 300° |
| 2026-05-06 01:53 | 33.51862 | -118.48126 | 16275 ft | 372 kts | 301° |
| 2026-05-06 01:53 | 33.53531 | -118.50944 | 16976 ft | 370 kts | 310° |
| 2026-05-06 01:53 | 33.55278 | -118.53662 | 17851 ft | 367 kts | 310° |
| 2026-05-06 01:53 | 33.56972 | -118.56301 | 18550 ft | 367 kts | 310° |
| 2026-05-06 01:54 | 33.58761 | -118.59089 | 19127 ft | 372 kts | 310° |
| 2026-05-06 01:54 | 33.60557 | -118.61891 | 19749 ft | 375 kts | 310° |
| 2026-05-06 01:54 | 33.62375 | -118.64729 | 20324 ft | 379 kts | 310° |
| 2026-05-06 01:54 | 33.64206 | -118.67590 | 20882 ft | 382 kts | 310° |
| 2026-05-06 01:55 | 33.66089 | -118.70441 | 21485 ft | 382 kts | 317° |
| 2026-05-06 01:55 | 33.68594 | -118.72493 | 22004 ft | 380 kts | 334° |
| 2026-05-06 01:55 | 33.71256 | -118.74160 | 22611 ft | 380 kts | 334° |
| 2026-05-06 01:55 | 33.73913 | -118.75814 | 23121 ft | 384 kts | 335° |
| 2026-05-06 01:56 | 33.76621 | -118.77496 | 23611 ft | 387 kts | 335° |
| 2026-05-06 01:56 | 33.79357 | -118.79196 | 24090 ft | 389 kts | 335° |
| 2026-05-06 01:56 | 33.82075 | -118.80887 | 24536 ft | 392 kts | 335° |
| 2026-05-06 01:56 | 33.84844 | -118.82609 | 24933 ft | 395 kts | 335° |
| 2026-05-06 01:57 | 33.87639 | -118.84351 | 25338 ft | 399 kts | 336° |
| 2026-05-06 01:57 | 33.90446 | -118.86098 | 25615 ft | 404 kts | 336° |
| 2026-05-06 01:57 | 33.93275 | -118.87863 | 26098 ft | 404 kts | 336° |
| 2026-05-06 01:57 | 33.96128 | -118.89645 | 26513 ft | 405 kts | 336° |
| 2026-05-06 01:58 | 33.98896 | -118.91373 | 26993 ft | 405 kts | 337° |
| 2026-05-06 01:58 | 34.01696 | -118.93123 | 27442 ft | 404 kts | 337° |
| 2026-05-06 01:58 | 34.04490 | -118.94870 | 27923 ft | 403 kts | 336° |
| 2026-05-06 01:58 | 34.07225 | -118.96583 | 28428 ft | 400 kts | 337° |
| 2026-05-06 01:59 | 34.09974 | -118.98306 | 28852 ft | 399 kts | 338° |
| 2026-05-06 01:59 | 34.12609 | -119.00167 | 29268 ft | 404 kts | 329° |
| 2026-05-06 01:59 | 34.14951 | -119.02659 | 29701 ft | 411 kts | 318° |
| 2026-05-06 01:59 | 34.16917 | -119.05753 | 30070 ft | 421 kts | 308° |
| 2026-05-06 02:00 | 34.18545 | -119.09117 | 30476 ft | 419 kts | 307° |
| 2026-05-06 02:00 | 34.20215 | -119.12436 | 30886 ft | 417 kts | 308° |
| 2026-05-06 02:00 | 34.21875 | -119.15678 | 31297 ft | 414 kts | 308° |
| 2026-05-06 02:00 | 34.23504 | -119.18848 | 31723 ft | 410 kts | 308° |
| 2026-05-06 02:01 | 34.25103 | -119.21959 | 32158 ft | 407 kts | 308° |
| 2026-05-06 02:01 | 34.26669 | -119.25008 | 32555 ft | 404 kts | 308° |
| 2026-05-06 02:01 | 34.28244 | -119.28076 | 32878 ft | 403 kts | 308° |
| 2026-05-06 02:01 | 34.29798 | -119.31106 | 33247 ft | 402 kts | 309° |
| 2026-05-06 02:02 | 34.31360 | -119.34153 | 33450 ft | 403 kts | 308° |
| 2026-05-06 02:02 | 34.32914 | -119.37186 | 33714 ft | 402 kts | 307° |
| 2026-05-06 02:02 | 34.34463 | -119.40217 | 33973 ft | 393 kts | 307° |
| 2026-05-06 02:02 | 34.36039 | -119.43300 | 34020 ft | 402 kts | 308° |
| 2026-05-06 02:03 | 34.39348 | -119.49778 | 33982 ft | 416 kts | 307° |
| 2026-05-06 02:03 | 34.43210 | -119.55840 | 34003 ft | 421 kts | 321° |
| 2026-05-06 02:04 | 34.47768 | -119.61417 | 33973 ft | 435 kts | 321° |
| 2026-05-06 02:04 | 34.52462 | -119.67194 | 33964 ft | 442 kts | 320° |
| 2026-05-06 02:05 | 34.57150 | -119.72974 | 34001 ft | 444 kts | 321° |
| 2026-05-06 02:05 | 34.59506 | -119.75883 | 33874 ft | 442 kts | 321° |
| 2026-05-06 02:05 | 34.61841 | -119.78768 | 33995 ft | 442 kts | 321° |
| 2026-05-06 02:06 | 34.66571 | -119.84618 | 33964 ft | 447 kts | 321° |
| 2026-05-06 02:06 | 34.71296 | -119.90474 | 34066 ft | 447 kts | 321° |
| 2026-05-06 02:07 | 34.76002 | -119.96315 | 33956 ft | 446 kts | 321° |
| 2026-05-06 02:07 | 34.80657 | -120.02106 | 34031 ft | 441 kts | 321° |
| 2026-05-06 02:08 | 34.85392 | -120.08002 | 34034 ft | 447 kts | 321° |
| 2026-05-06 02:08 | 34.90126 | -120.13911 | 34007 ft | 452 kts | 322° |
| 2026-05-06 02:09 | 34.94840 | -120.19804 | 34045 ft | 448 kts | 322° |
| 2026-05-06 02:09 | 34.99601 | -120.25764 | 34059 ft | 452 kts | 322° |
| 2026-05-06 02:10 | 35.04375 | -120.31756 | 34067 ft | 449 kts | 322° |
| 2026-05-06 02:10 | 35.09108 | -120.37691 | 34059 ft | 450 kts | 324° |
| 2026-05-06 02:11 | 35.14115 | -120.43259 | 34069 ft | 450 kts | 326° |
| 2026-05-06 02:11 | 35.19103 | -120.48845 | 34066 ft | 447 kts | 326° |
| 2026-05-06 02:12 | 35.24017 | -120.54359 | 34066 ft | 448 kts | 326° |
| 2026-05-06 02:12 | 35.28947 | -120.59903 | 34065 ft | 450 kts | 326° |
| 2026-05-06 02:13 | 35.33637 | -120.65187 | 34064 ft | 447 kts | 325° |
| 2026-05-06 02:13 | 35.38305 | -120.70451 | 34057 ft | 448 kts | 325° |
| 2026-05-06 02:14 | 35.43010 | -120.75570 | 34053 ft | 441 kts | 332° |
| 2026-05-06 02:14 | 35.48159 | -120.80285 | 34036 ft | 442 kts | 330° |
| 2026-05-06 02:15 | 35.53426 | -120.85272 | 34031 ft | 443 kts | 330° |
| 2026-05-06 02:15 | 35.58582 | -120.90175 | 34007 ft | 442 kts | 330° |
| 2026-05-06 02:16 | 35.63811 | -120.95155 | 34006 ft | 444 kts | 330° |
| 2026-05-06 02:16 | 35.68972 | -121.00078 | 34018 ft | 444 kts | 330° |
| 2026-05-06 02:17 | 35.73867 | -121.04751 | 34021 ft | 442 kts | 330° |
| 2026-05-06 02:17 | 35.78669 | -121.09338 | 34013 ft | 429 kts | 330° |
| 2026-05-06 02:18 | 35.83398 | -121.13857 | 34025 ft | 431 kts | 330° |
| 2026-05-06 02:18 | 35.85710 | -121.16070 | 33854 ft | 417 kts | 331° |
| 2026-05-06 02:18 | 35.87989 | -121.18272 | 33146 ft | 412 kts | 330° |
| 2026-05-06 02:19 | 35.90227 | -121.20437 | 32395 ft | 408 kts | 330° |
| 2026-05-06 02:19 | 35.92470 | -121.22598 | 31783 ft | 411 kts | 331° |
| 2026-05-06 02:19 | 35.94867 | -121.24902 | 31255 ft | 432 kts | 330° |
| 2026-05-06 02:19 | 35.97410 | -121.27354 | 30687 ft | 437 kts | 330° |
| 2026-05-06 02:20 | 36.02395 | -121.32169 | 29781 ft | 437 kts | 330° |
| 2026-05-06 02:20 | 36.04775 | -121.34468 | 29375 ft | 434 kts | 330° |
| 2026-05-06 02:20 | 36.07179 | -121.36727 | 28962 ft | 425 kts | 334° |
| 2026-05-06 02:21 | 36.09680 | -121.38683 | 28613 ft | 424 kts | 335° |
| 2026-05-06 02:21 | 36.12212 | -121.40651 | 28271 ft | 422 kts | 335° |
| 2026-05-06 02:21 | 36.14683 | -121.42577 | 27930 ft | 418 kts | 335° |
| 2026-05-06 02:21 | 36.17166 | -121.44514 | 27546 ft | 418 kts | 335° |
| 2026-05-06 02:22 | 36.19617 | -121.46427 | 27038 ft | 416 kts | 335° |
| 2026-05-06 02:22 | 36.22038 | -121.48320 | 26490 ft | 413 kts | 335° |
| 2026-05-06 02:22 | 36.24451 | -121.50209 | 26036 ft | 409 kts | 335° |
| 2026-05-06 02:22 | 36.26871 | -121.52102 | 25576 ft | 406 kts | 334° |
| 2026-05-06 02:23 | 36.29439 | -121.54114 | 25090 ft | 402 kts | 334° |
| 2026-05-06 02:23 | 36.31925 | -121.56063 | 24634 ft | 396 kts | 334° |
| 2026-05-06 02:23 | 36.34320 | -121.57944 | 24177 ft | 385 kts | 334° |
| 2026-05-06 02:23 | 36.36536 | -121.59682 | 23801 ft | 380 kts | 334° |
| 2026-05-06 02:24 | 36.38775 | -121.61440 | 23388 ft | 381 kts | 334° |
| 2026-05-06 02:24 | 36.41012 | -121.63199 | 22932 ft | 379 kts | 334° |
| 2026-05-06 02:24 | 36.43228 | -121.64944 | 22560 ft | 374 kts | 334° |
| 2026-05-06 02:24 | 36.45405 | -121.66657 | 22149 ft | 373 kts | 333° |
| 2026-05-06 02:25 | 36.47605 | -121.68390 | 21742 ft | 371 kts | 333° |
| 2026-05-06 02:25 | 36.49776 | -121.70102 | 21353 ft | 368 kts | 333° |
| 2026-05-06 02:25 | 36.51911 | -121.71787 | 20967 ft | 366 kts | 333° |
| 2026-05-06 02:25 | 36.54065 | -121.73489 | 20563 ft | 364 kts | 333° |
| 2026-05-06 02:26 | 36.56192 | -121.75171 | 20171 ft | 361 kts | 332° |
| 2026-05-06 02:26 | 36.58360 | -121.76885 | 19755 ft | 358 kts | 332° |
| 2026-05-06 02:26 | 36.60563 | -121.78630 | 19339 ft | 356 kts | 333° |
| 2026-05-06 02:26 | 36.62767 | -121.80376 | 18927 ft | 354 kts | 332° |
| 2026-05-06 02:27 | 36.64931 | -121.82091 | 18517 ft | 352 kts | 332° |
| 2026-05-06 02:27 | 36.67038 | -121.83762 | 18120 ft | 349 kts | 332° |
| 2026-05-06 02:27 | 36.69342 | -121.85590 | 17684 ft | 348 kts | 332° |
| 2026-05-06 02:27 | 36.71564 | -121.87356 | 17267 ft | 344 kts | 332° |
| 2026-05-06 02:28 | 36.73705 | -121.89017 | 16862 ft | 340 kts | 338° |
| 2026-05-06 02:28 | 36.76239 | -121.89978 | 16466 ft | 333 kts | 350° |
| 2026-05-06 02:28 | 36.78746 | -121.90691 | 16049 ft | 333 kts | 350° |
| 2026-05-06 02:28 | 36.81124 | -121.91359 | 15654 ft | 330 kts | 350° |
| 2026-05-06 02:29 | 36.83568 | -121.92043 | 15261 ft | 328 kts | 350° |
| 2026-05-06 02:29 | 36.86016 | -121.92727 | 14846 ft | 325 kts | 350° |
| 2026-05-06 02:29 | 36.88508 | -121.93424 | 14437 ft | 323 kts | 350° |
| 2026-05-06 02:29 | 36.91024 | -121.94128 | 14019 ft | 323 kts | 351° |
| 2026-05-06 02:30 | 36.93551 | -121.94834 | 13594 ft | 321 kts | 350° |
| 2026-05-06 02:30 | 36.95867 | -121.95557 | 13281 ft | 318 kts | 346° |
| 2026-05-06 02:30 | 36.97965 | -121.96379 | 12958 ft | 319 kts | 346° |
| 2026-05-06 02:30 | 37.00097 | -121.97212 | 12607 ft | 319 kts | 346° |
| 2026-05-06 02:31 | 37.02184 | -121.98027 | 12252 ft | 317 kts | 346° |
| 2026-05-06 02:31 | 37.04311 | -121.98856 | 11907 ft | 316 kts | 346° |
| 2026-05-06 02:31 | 37.06400 | -121.99672 | 11547 ft | 314 kts | 345° |
| 2026-05-06 02:31 | 37.08509 | -122.00496 | 11174 ft | 309 kts | 346° |
| 2026-05-06 02:32 | 37.10792 | -122.01389 | 10829 ft | 299 kts | 346° |
| 2026-05-06 02:32 | 37.13018 | -122.02259 | 10440 ft | 289 kts | 346° |
| 2026-05-06 02:32 | 37.15194 | -122.03110 | 10080 ft | 276 kts | 345° |
| 2026-05-06 02:32 | 37.17084 | -122.03851 | 9780 ft | 266 kts | 346° |
| 2026-05-06 02:33 | 37.18816 | -122.04529 | 9494 ft | 257 kts | 346° |
| 2026-05-06 02:33 | 37.20044 | -122.05009 | 9300 ft | 256 kts | 346° |
| 2026-05-06 02:33 | 37.24594 | -122.06792 | 8472 ft | 257 kts | 345° |
| 2026-05-06 02:34 | 37.26562 | -122.07564 | 8141 ft | 257 kts | 345° |
| 2026-05-06 02:34 | 37.28502 | -122.08327 | 7809 ft | 255 kts | 345° |
| 2026-05-06 02:34 | 37.30441 | -122.09090 | 7431 ft | 256 kts | 345° |
| 2026-05-06 02:34 | 37.32354 | -122.09843 | 7051 ft | 256 kts | 345° |
| 2026-05-06 02:35 | 37.34218 | -122.10578 | 6680 ft | 254 kts | 345° |
| 2026-05-06 02:35 | 37.36091 | -122.11317 | 6302 ft | 254 kts | 344° |
| 2026-05-06 02:35 | 37.37773 | -122.11964 | 6034 ft | 250 kts | 346° |
| 2026-05-06 02:35 | 37.39447 | -122.12539 | 6006 ft | 249 kts | 346° |
| 2026-05-06 02:36 | 37.41144 | -122.13121 | 5893 ft | 254 kts | 346° |
| 2026-05-06 02:36 | 37.42874 | -122.13715 | 5217 ft | 263 kts | 346° |
| 2026-05-06 02:36 | 37.44632 | -122.14317 | 4427 ft | 261 kts | 345° |
| 2026-05-06 02:36 | 37.46365 | -122.14913 | 4268 ft | 245 kts | 345° |
| 2026-05-06 02:37 | 37.48051 | -122.15493 | 3966 ft | 247 kts | 345° |
| 2026-05-06 02:37 | 37.49692 | -122.16057 | 3690 ft | 242 kts | 345° |
| 2026-05-06 02:37 | 37.51289 | -122.16606 | 3416 ft | 235 kts | 345° |
| 2026-05-06 02:37 | 37.52842 | -122.17231 | 3144 ft | 228 kts | 328° |
| 2026-05-06 02:38 | 37.53897 | -122.18699 | 2920 ft | 220 kts | 300° |
| 2026-05-06 02:38 | 37.54626 | -122.20350 | 2683 ft | 213 kts | 299° |
| 2026-05-06 02:38 | 37.55306 | -122.21964 | 2448 ft | 205 kts | 298° |
| 2026-05-06 02:38 | 37.55960 | -122.23525 | 2168 ft | 199 kts | 298° |
| 2026-05-06 02:39 | 37.56659 | -122.25166 | 1857 ft | 194 kts | 298° |
| 2026-05-06 02:39 | 37.57287 | -122.26649 | 1644 ft | 179 kts | 298° |
| 2026-05-06 02:39 | 37.57839 | -122.27955 | 1392 ft | 157 kts | 298° |
| 2026-05-06 02:39 | 37.58349 | -122.29161 | 1155 ft | 138 kts | 297° |
| 2026-05-06 02:40 | 37.58791 | -122.30207 | 980 ft | 136 kts | 297° |
| 2026-05-06 02:40 | 37.59239 | -122.31270 | 815 ft | 137 kts | 297° |
| 2026-05-06 02:40 | 37.59690 | -122.32338 | 643 ft | 139 kts | 297° |
| 2026-05-06 02:40 | 37.60144 | -122.33416 | 462 ft | 139 kts | 296° |
| 2026-05-06 02:41 | 37.60595 | -122.34507 | 286 ft | 139 kts | 297° |
| 2026-05-06 02:41 | 37.61049 | -122.35561 | 132 ft | 135 kts | 297° |
| 2026-05-06 02:41 | 37.61482 | -122.36568 | 14 ft | 120 kts | 296° |
| 2026-05-06 02:41 | 37.61796 | -122.37323 | 13 ft | 66 kts | 298° |
| 2026-05-06 02:42 | 37.61961 | -122.37730 | 24 ft | 40 kts | 295° |
| 2026-05-06 02:42 | 37.61968 | -122.37926 | 28 ft | 11 kts | 228° |
| 2026-05-06 02:42 | 37.61960 | -122.37936 | 28 ft | 0 kts | 230° |
| 2026-05-06 02:43 | 37.61958 | -122.37939 | 28 ft | 0 kts | 230° |
| 2026-05-06 02:43 | 37.61956 | -122.37942 | 28 ft | 0 kts | 230° |
| 2026-05-06 02:43 | 37.61953 | -122.37946 | 28 ft | 3 kts | 230° |
| 2026-05-06 02:43 | 37.61936 | -122.37972 | 29 ft | 4 kts | 230° |
| 2026-05-06 02:44 | 37.61912 | -122.38015 | 30 ft | 7 kts | 253° |
| 2026-05-06 02:44 | 37.61926 | -122.38105 | 30 ft | 13 kts | 295° |
| 2026-05-06 02:44 | 37.61975 | -122.38227 | 30 ft | 17 kts | 298° |
| 2026-05-06 02:44 | 37.62038 | -122.38376 | 30 ft | 21 kts | 297° |
| 2026-05-06 02:45 | 37.62088 | -122.38509 | 30 ft | 7 kts | 277° |
| 2026-05-06 02:45 | 37.62081 | -122.38565 | 29 ft | 0 kts | 269° |
| 2026-05-06 02:46 | 37.62080 | -122.38579 | 30 ft | 3 kts | 266° |
| 2026-05-06 02:46 | 37.62079 | -122.38614 | 30 ft | 4 kts | 268° |
| 2026-05-06 02:46 | 37.62078 | -122.38635 | 30 ft | 0 kts | 268° |
| 2026-05-06 02:46 | 37.62078 | -122.38636 | 30 ft | 0 kts | 268° |
| 2026-05-06 02:49 | 37.62078 | -122.38640 | 30 ft | 0 kts | 268° |